Tennessee, Illinois
Current Conditions -  °F | °C
As of 6:15 PM on Friday 28 Nov 2014 (Local Time) from KMQB Reporting Station
Clear Clear  
Wind Chill: 27°   Ceiling: Unl
Heat Index: 35°   Visibility: 10mi
Dew Point: 32°   Wind: 10mph
Humidity: 89%   Direction: 140°SE
Pressure: 29.9"   Gusts: NA
Location:  40.41°N, 90.84°W
Report Text: KMQB 290015Z AUTO 14009KT 10SM CLR 02/00 A2990 RMK AO2 T00170000
Loading
Personal Weather Stations






























Interactive Weather Map New forecast layout! Learn more

10-Day Weather Forecast

Advertisements
Track Severe Weather on mobile